Grand Island, California
Current Conditions -  °F | °C
As of 12:58 PM on Tuesday 25 Nov 2014 (Local Time) from KSUU Reporting Station
Clear Clear  
Wind Chill: 62°   Ceiling: Unl
Heat Index: 62°   Visibility: 10mi
Dew Point: 49°   Wind: 9mph
Humidity: 63%   Direction: 50°NE
Pressure: 30.42"   Gusts: NA
Location:  38.2298°N, 121.579°W
Report Text: KSUU 252058Z AUTO 05008KT 10SM CLR 17/10 A3042 RMK AO2 SLP308 T01680096 57024 $
Loading
Personal Weather Stations






























Interactive Weather Map New forecast layout! Learn more

10-Day Weather Forecast

Advertisements
Track Severe Weather on mobile